Time;durP1;ratioP1;P1;durP2;ratioP2;P2;SDS_P1;SDS_P2;PMS_P1;PMS_P2;Temp;Humidity;BMP_temperature;BMP_pressure;BME280_temperature;BME280_humidity;BME280_pressure;Samples;Min_cycle;Max_cycle;Signal;HPM_P1;HPM_P2
2021/07/30 00:00:23;;;;;;;;;;;27.50;97.90;;;;;;1903480;74;20189;-88
2021/07/30 00:02:53;;;;;;;;;;;27.50;98.00;;;;;;1911486;74;20130;-90
2021/07/30 00:05:23;;;;;;;;;;;27.50;97.90;;;;;;1910852;74;20155;-90
2021/07/30 00:07:52;;;;;;;;;;;27.50;97.90;;;;;;1830860;76;20220;-89
2021/07/30 00:10:22;;;;;;;;;;;27.50;97.90;;;;;;1866967;76;20210;-90
2021/07/30 00:12:55;;;;;;;;;;;27.50;98.00;;;;;;1911781;74;20128;-89
2021/07/30 00:15:28;;;;;;;;;;;27.50;98.00;;;;;;1917469;73;20164;-87
2021/07/30 00:18:16;;;;;;;;;;;27.50;97.90;;;;;;1897579;74;20468;-85
2021/07/30 00:20:46;;;;;;;;;;;27.50;97.90;;;;;;1908313;73;20195;-87
2021/07/30 00:23:15;;;;;;;;;;;27.50;97.90;;;;;;1911455;74;20238;-85
2021/07/30 00:26:09;;;;;;;;;;;27.50;98.00;;;;;;1902627;74;20133;-86
2021/07/30 00:28:37;;;;;;;;;;;27.60;98.00;;;;;;1904802;74;20127;-86
2021/07/30 00:31:13;;;;;;;;;;;27.50;98.00;;;;;;1914087;74;20170;-85
2021/07/30 00:33:45;;;;;;;;;;;27.50;98.00;;;;;;1904153;74;20325;-85
2021/07/30 00:36:16;;;;;;;;;;;27.60;98.10;;;;;;1916193;74;20157;-85
2021/07/30 00:38:45;;;;;;;;;;;27.60;98.10;;;;;;1903975;74;20197;-86
2021/07/30 00:41:15;;;;;;;;;;;27.60;98.10;;;;;;1884554;75;20213;-86
2021/07/30 00:43:45;;;;;;;;;;;27.60;98.00;;;;;;1890617;75;20197;-85
2021/07/30 00:46:15;;;;;;;;;;;27.60;98.10;;;;;;1889934;75;20238;-85
2021/07/30 00:48:45;;;;;;;;;;;27.60;98.20;;;;;;1890363;75;20176;-85
2021/07/30 00:51:15;;;;;;;;;;;27.60;98.20;;;;;;1886183;75;20197;-86
2021/07/30 00:53:45;;;;;;;;;;;27.60;98.20;;;;;;1884802;75;20234;-86
2021/07/30 00:56:14;;;;;;;;;;;27.60;98.30;;;;;;1887495;75;20235;-86
2021/07/30 00:58:44;;;;;;;;;;;27.60;98.20;;;;;;1883891;75;20230;-86
2021/07/30 01:01:14;;;;;;;;;;;27.70;98.30;;;;;;1889519;75;20235;-84
2021/07/30 01:03:44;;;;;;;;;;;27.80;98.30;;;;;;1886227;75;20280;-85
2021/07/30 01:06:14;;;;;;;;;;;27.90;97.90;;;;;;1882347;75;20259;-86
2021/07/30 01:08:44;;;;;;;;;;;27.90;97.70;;;;;;1875459;75;20178;-86
2021/07/30 01:11:13;;;;;;;;;;;28.10;97.70;;;;;;1888160;75;20475;-86
2021/07/30 01:13:43;;;;;;;;;;;28.20;97.70;;;;;;1880112;75;20200;-86
2021/07/30 01:16:13;;;;;;;;;;;28.30;97.30;;;;;;1886517;75;20196;-86
2021/07/30 01:18:42;;;;;;;;;;;28.40;96.40;;;;;;1888742;74;20267;-85
2021/07/30 01:21:13;;;;;;;;;;;28.50;96.10;;;;;;1897529;75;20223;-86
2021/07/30 01:23:42;;;;;;;;;;;28.60;96.20;;;;;;1899112;74;20155;-86
2021/07/30 01:26:12;;;;;;;;;;;28.70;95.80;;;;;;1881943;75;20182;-86
2021/07/30 01:28:42;;;;;;;;;;;28.70;95.60;;;;;;1881143;75;20194;-86
2021/07/30 01:31:11;;;;;;;;;;;28.80;95.40;;;;;;1890105;75;20205;-86
2021/07/30 01:33:42;;;;;;;;;;;28.80;95.40;;;;;;1894062;75;20162;-87
2021/07/30 01:36:11;;;;;;;;;;;28.80;95.60;;;;;;1893406;75;20223;-86
2021/07/30 01:38:41;;;;;;;;;;;28.80;95.60;;;;;;1887650;75;20698;-86
2021/07/30 01:41:11;;;;;;;;;;;28.90;95.60;;;;;;1895533;74;20493;-87
2021/07/30 01:43:41;;;;;;;;;;;29.00;95.50;;;;;;1908787;74;20244;-87
2021/07/30 01:46:22;;;;;;;;;;;29.10;95.40;;;;;;1901453;74;20165;-87
2021/07/30 01:48:57;;;;;;;;;;;29.20;94.90;;;;;;1899834;74;20234;-77
2021/07/30 01:51:27;;;;;;;;;;;29.40;95.00;;;;;;1912570;74;20150;-78
2021/07/30 01:53:57;;;;;;;;;;;29.50;94.50;;;;;;1898540;74;20131;-78
2021/07/30 01:56:28;;;;;;;;;;;29.70;93.90;;;;;;1909461;73;20200;-77
2021/07/30 01:59:20;;;;;;;;;;;29.70;93.70;;;;;;1901866;74;20112;-78
2021/07/30 02:01:51;;;;;;;;;;;29.70;94.20;;;;;;1906608;74;20177;-79
2021/07/30 02:04:22;;;;;;;;;;;29.80;93.30;;;;;;1910109;74;20139;-79
2021/07/30 02:06:54;;;;;;;;;;;29.90;93.00;;;;;;1924607;74;20175;-79
2021/07/30 02:09:24;;;;;;;;;;;30.00;92.90;;;;;;1905549;74;20106;-78
2021/07/30 02:11:55;;;;;;;;;;;30.10;92.70;;;;;;1905377;74;20208;-80
2021/07/30 02:14:28;;;;;;;;;;;30.10;92.50;;;;;;1921820;74;20206;-79
2021/07/30 02:16:59;;;;;;;;;;;30.20;92.40;;;;;;1907681;74;20158;-77
2021/07/30 02:19:29;;;;;;;;;;;30.40;92.30;;;;;;1915694;74;20199;-79
2021/07/30 02:21:59;;;;;;;;;;;30.50;91.70;;;;;;1911107;74;20175;-76
2021/07/30 02:24:31;;;;;;;;;;;30.50;91.60;;;;;;1915566;74;20189;-79
2021/07/30 02:27:01;;;;;;;;;;;30.60;91.80;;;;;;1902769;73;20157;-78
2021/07/30 02:29:31;;;;;;;;;;;30.70;91.30;;;;;;1909385;74;20300;-77
2021/07/30 02:32:00;;;;;;;;;;;30.80;90.90;;;;;;1907841;74;20193;-80
2021/07/30 02:34:34;;;;;;;;;;;30.80;91.00;;;;;;1910126;74;20165;-78
2021/07/30 02:37:05;;;;;;;;;;;30.90;91.10;;;;;;1918426;74;20128;-78
2021/07/30 02:39:34;;;;;;;;;;;31.00;90.70;;;;;;1916603;74;20163;-76
2021/07/30 02:42:05;;;;;;;;;;;31.10;90.80;;;;;;1902704;74;20254;-78
2021/07/30 02:44:35;;;;;;;;;;;31.20;90.30;;;;;;1896528;74;20205;-78
2021/07/30 02:47:07;;;;;;;;;;;31.30;89.90;;;;;;1912756;74;20205;-79
2021/07/30 02:49:36;;;;;;;;;;;31.40;89.50;;;;;;1910110;74;20177;-78
2021/07/30 02:52:06;;;;;;;;;;;31.50;90.00;;;;;;1918417;74;20183;-79
2021/07/30 02:54:36;;;;;;;;;;;31.50;89.70;;;;;;1913675;73;20114;-78
2021/07/30 02:57:05;;;;;;;;;;;31.60;89.10;;;;;;1855560;76;20196;-78
2021/07/30 02:59:35;;;;;;;;;;;31.70;88.80;;;;;;1851445;77;20213;-78
2021/07/30 03:02:05;;;;;;;;;;;31.80;87.90;;;;;;1837811;77;20190;-80
2021/07/30 03:04:35;;;;;;;;;;;31.80;86.90;;;;;;1860843;77;20148;-81
2021/07/30 03:07:05;;;;;;;;;;;31.90;86.00;;;;;;1858414;77;20133;-76
2021/07/30 03:09:35;;;;;;;;;;;32.00;86.20;;;;;;1853154;77;20220;-76
2021/07/30 03:12:06;;;;;;;;;;;32.00;86.60;;;;;;1842315;77;20195;-79
2021/07/30 03:14:38;;;;;;;;;;;32.10;86.50;;;;;;1847277;77;20192;-79
2021/07/30 03:17:07;;;;;;;;;;;32.20;86.30;;;;;;1848247;77;20289;-78
2021/07/30 03:19:37;;;;;;;;;;;32.20;85.10;;;;;;1851300;77;20224;-77
2021/07/30 03:22:06;;;;;;;;;;;32.30;86.00;;;;;;1853263;77;20625;-76
2021/07/30 03:24:37;;;;;;;;;;;32.30;84.70;;;;;;1853900;77;20198;-80
2021/07/30 03:27:08;;;;;;;;;;;32.40;84.50;;;;;;1839290;77;20132;-77
2021/07/30 03:29:38;;;;;;;;;;;32.40;85.20;;;;;;1852589;77;20174;-77
2021/07/30 03:32:09;;;;;;;;;;;32.40;83.20;;;;;;1894590;75;20192;-77
2021/07/30 03:34:39;;;;;;;;;;;32.40;82.60;;;;;;1898772;75;20648;-75
2021/07/30 03:37:09;;;;;;;;;;;32.40;82.30;;;;;;1895926;75;20422;-79
2021/07/30 03:39:38;;;;;;;;;;;32.60;84.00;;;;;;1898611;73;20201;-78
2021/07/30 03:42:08;;;;;;;;;;;32.60;83.40;;;;;;1897130;74;20252;-78
2021/07/30 03:44:38;;;;;;;;;;;32.60;82.40;;;;;;1896831;73;20618;-77
2021/07/30 03:47:08;;;;;;;;;;;32.70;82.50;;;;;;1910353;74;20479;-76
2021/07/30 03:49:38;;;;;;;;;;;32.70;82.70;;;;;;1897110;74;20401;-77
2021/07/30 03:52:08;;;;;;;;;;;32.80;78.90;;;;;;1904189;74;20180;-78
2021/07/30 03:54:37;;;;;;;;;;;32.80;76.80;;;;;;1901169;74;20185;-79
2021/07/30 03:57:07;;;;;;;;;;;32.90;77.50;;;;;;1898348;74;20184;-78
2021/07/30 03:59:37;;;;;;;;;;;33.00;76.40;;;;;;1909235;74;20169;-79
2021/07/30 04:02:07;;;;;;;;;;;33.20;77.10;;;;;;1896062;74;20197;-81
2021/07/30 04:04:37;;;;;;;;;;;33.20;75.00;;;;;;1905750;74;20720;-80
2021/07/30 04:07:06;;;;;;;;;;;33.30;74.60;;;;;;1908135;74;20163;-81
2021/07/30 04:09:36;;;;;;;;;;;33.30;73.90;;;;;;1911187;74;20235;-80
2021/07/30 04:12:06;;;;;;;;;;;33.20;74.40;;;;;;1895959;73;20213;-78
2021/07/30 04:14:36;;;;;;;;;;;33.20;74.50;;;;;;1905763;74;20243;-79
2021/07/30 04:17:08;;;;;;;;;;;33.20;74.40;;;;;;1904589;74;20166;-79
2021/07/30 04:19:43;;;;;;;;;;;33.20;75.10;;;;;;1909560;74;20461;-78
2021/07/30 04:22:11;;;;;;;;;;;33.30;73.90;;;;;;1905856;74;20209;-79
2021/07/30 04:24:41;;;;;;;;;;;33.20;74.40;;;;;;1905453;74;20208;-79
2021/07/30 04:27:12;;;;;;;;;;;33.30;74.00;;;;;;1902688;74;20625;-78
2021/07/30 04:29:42;;;;;;;;;;;33.40;74.70;;;;;;1904022;74;20714;-79
2021/07/30 04:32:12;;;;;;;;;;;33.40;73.60;;;;;;1904087;74;20226;-77
2021/07/30 04:34:42;;;;;;;;;;;33.50;74.30;;;;;;1904691;74;20194;-77
2021/07/30 04:37:11;;;;;;;;;;;33.50;73.20;;;;;;1907615;73;20246;-78
2021/07/30 04:39:41;;;;;;;;;;;33.70;72.80;;;;;;1906864;73;20490;-79
2021/07/30 04:42:10;;;;;;;;;;;33.70;72.70;;;;;;1904126;74;20223;-78
2021/07/30 04:44:40;;;;;;;;;;;33.80;71.90;;;;;;1903634;74;20156;-79
2021/07/30 04:47:10;;;;;;;;;;;33.90;72.30;;;;;;1897934;75;20252;-81
2021/07/30 04:49:39;;;;;;;;;;;33.90;72.00;;;;;;1900431;75;20180;-78
2021/07/30 04:52:09;;;;;;;;;;;33.90;71.30;;;;;;1905658;74;20147;-77
2021/07/30 04:54:40;;;;;;;;;;;33.90;70.20;;;;;;1904050;75;20521;-78
2021/07/30 04:57:10;;;;;;;;;;;33.90;70.90;;;;;;1900190;75;20199;-79
2021/07/30 04:59:40;;;;;;;;;;;33.90;70.40;;;;;;1847020;77;20424;-78
2021/07/30 05:02:09;;;;;;;;;;;33.90;70.50;;;;;;1845717;77;20300;-78
2021/07/30 05:04:39;;;;;;;;;;;33.90;70.40;;;;;;1845704;77;20194;-77
2021/07/30 05:07:09;;;;;;;;;;;33.90;70.90;;;;;;1901001;74;20158;-77
2021/07/30 05:09:39;;;;;;;;;;;34.00;69.90;;;;;;1895630;75;20160;-79
2021/07/30 05:12:09;;;;;;;;;;;34.10;69.90;;;;;;1903021;75;20206;-77
2021/07/30 05:14:39;;;;;;;;;;;34.20;70.20;;;;;;1904277;75;20352;-77
2021/07/30 05:17:10;;;;;;;;;;;34.20;69.50;;;;;;1894741;75;20169;-79
2021/07/30 05:19:39;;;;;;;;;;;34.20;69.90;;;;;;1896430;75;20150;-78
2021/07/30 05:22:09;;;;;;;;;;;34.20;70.10;;;;;;1895604;74;20275;-78
2021/07/30 05:24:39;;;;;;;;;;;34.20;69.50;;;;;;1893584;75;20271;-77
2021/07/30 05:27:08;;;;;;;;;;;34.10;69.90;;;;;;1902265;75;20228;-77
2021/07/30 05:29:38;;;;;;;;;;;34.00;70.10;;;;;;1900165;75;20470;-78
2021/07/30 05:32:08;;;;;;;;;;;34.10;70.00;;;;;;1898938;74;20299;-79
2021/07/30 05:34:38;;;;;;;;;;;34.10;69.30;;;;;;1896669;74;20148;-78
2021/07/30 05:37:08;;;;;;;;;;;34.20;67.80;;;;;;1899703;74;20197;-77
2021/07/30 05:39:38;;;;;;;;;;;34.10;69.60;;;;;;1900560;74;20424;-78
2021/07/30 05:42:08;;;;;;;;;;;34.10;69.80;;;;;;1904558;74;20171;-77
2021/07/30 05:44:39;;;;;;;;;;;34.00;71.00;;;;;;1905893;74;20472;-77
2021/07/30 05:47:10;;;;;;;;;;;34.00;70.80;;;;;;1899693;74;20257;-79
2021/07/30 05:49:41;;;;;;;;;;;34.00;70.80;;;;;;1903694;74;20209;-78
2021/07/30 05:52:10;;;;;;;;;;;33.90;70.10;;;;;;1905195;74;20515;-77
2021/07/30 05:54:43;;;;;;;;;;;33.80;71.10;;;;;;1843648;78;20266;-76
2021/07/30 05:57:12;;;;;;;;;;;33.70;71.10;;;;;;1853005;77;20301;-76
2021/07/30 05:59:42;;;;;;;;;;;33.70;72.10;;;;;;1849898;76;20524;-76
2021/07/30 06:02:12;;;;;;;;;;;33.70;71.60;;;;;;1851041;77;20218;-76
2021/07/30 06:04:41;;;;;;;;;;;33.80;71.00;;;;;;1852663;77;20795;-76
2021/07/30 06:07:11;;;;;;;;;;;33.80;71.90;;;;;;1853304;77;20426;-77
2021/07/30 06:09:41;;;;;;;;;;;33.80;71.00;;;;;;1852760;77;20226;-76
2021/07/30 06:12:10;;;;;;;;;;;33.80;71.60;;;;;;1863031;77;20297;-76
2021/07/30 06:14:40;;;;;;;;;;;33.70;72.50;;;;;;1861347;77;20218;-77
2021/07/30 06:17:10;;;;;;;;;;;33.70;73.20;;;;;;1828800;76;20302;-77
2021/07/30 06:19:39;;;;;;;;;;;33.60;73.00;;;;;;1904113;73;20221;-76
2021/07/30 06:22:09;;;;;;;;;;;33.60;72.80;;;;;;1915770;74;20272;-77
2021/07/30 06:24:39;;;;;;;;;;;33.60;72.50;;;;;;1905942;74;20489;-77
2021/07/30 06:27:09;;;;;;;;;;;33.70;73.00;;;;;;1908176;74;20238;-76
2021/07/30 06:29:38;;;;;;;;;;;33.70;72.80;;;;;;1910503;74;20476;-77
2021/07/30 06:32:09;;;;;;;;;;;33.70;73.30;;;;;;1904938;74;20225;-77
2021/07/30 06:34:39;;;;;;;;;;;33.70;72.90;;;;;;1896975;74;20236;-78
2021/07/30 06:37:11;;;;;;;;;;;33.80;72.60;;;;;;1893689;74;20189;-77
2021/07/30 06:39:40;;;;;;;;;;;33.80;71.70;;;;;;1898535;74;20211;-76
2021/07/30 06:42:10;;;;;;;;;;;33.70;72.00;;;;;;1909024;74;20210;-77
2021/07/30 06:44:39;;;;;;;;;;;33.70;72.60;;;;;;1903016;75;20267;-77
2021/07/30 06:47:09;;;;;;;;;;;33.70;73.40;;;;;;1914596;75;20187;-76
2021/07/30 06:49:39;;;;;;;;;;;33.60;72.70;;;;;;1894850;75;20187;-78
2021/07/30 06:52:08;;;;;;;;;;;33.60;72.80;;;;;;1892985;75;20172;-78
2021/07/30 06:54:40;;;;;;;;;;;33.60;73.10;;;;;;1901849;73;20279;-77
2021/07/30 06:57:10;;;;;;;;;;;33.50;73.70;;;;;;1899716;75;20458;-78
2021/07/30 06:59:40;;;;;;;;;;;33.50;73.30;;;;;;1902927;75;20131;-78
2021/07/30 07:02:09;;;;;;;;;;;33.50;72.60;;;;;;1896746;75;20450;-77
2021/07/30 07:04:39;;;;;;;;;;;33.50;73.90;;;;;;1901365;75;20131;-76
2021/07/30 07:07:09;;;;;;;;;;;33.50;74.00;;;;;;1897725;75;20182;-78
2021/07/30 07:09:39;;;;;;;;;;;33.50;75.50;;;;;;1900140;74;20211;-78
2021/07/30 07:12:09;;;;;;;;;;;33.40;77.10;;;;;;1900633;75;20434;-77
2021/07/30 07:14:38;;;;;;;;;;;33.30;78.10;;;;;;1901269;75;20213;-77
2021/07/30 07:17:08;;;;;;;;;;;33.30;77.40;;;;;;1897978;75;20124;-77
2021/07/30 07:19:38;;;;;;;;;;;33.20;77.40;;;;;;1899020;75;20215;-78
2021/07/30 07:22:08;;;;;;;;;;;33.10;77.80;;;;;;1836873;76;20487;-77
2021/07/30 07:24:38;;;;;;;;;;;33.10;77.50;;;;;;1833180;77;20226;-77
2021/07/30 07:27:08;;;;;;;;;;;33.10;78.00;;;;;;1901714;74;20501;-78
2021/07/30 07:29:38;;;;;;;;;;;33.10;79.00;;;;;;1895593;75;20214;-78
2021/07/30 07:32:07;;;;;;;;;;;33.10;78.80;;;;;;1896907;75;20168;-77
2021/07/30 07:34:37;;;;;;;;;;;33.10;78.90;;;;;;1895201;75;20165;-77
2021/07/30 07:37:07;;;;;;;;;;;33.10;77.60;;;;;;1888589;75;20158;-79
2021/07/30 07:39:37;;;;;;;;;;;33.10;76.90;;;;;;1896686;75;20155;-77
2021/07/30 07:42:07;;;;;;;;;;;33.10;77.00;;;;;;1905674;73;20202;-76
2021/07/30 07:44:36;;;;;;;;;;;33.10;77.10;;;;;;1896009;73;20170;-76
2021/07/30 07:47:06;;;;;;;;;;;33.10;77.50;;;;;;1894471;73;20205;-76
2021/07/30 07:49:36;;;;;;;;;;;33.20;77.00;;;;;;1903372;75;20184;-78
2021/07/30 07:52:06;;;;;;;;;;;33.30;75.80;;;;;;1892549;75;20187;-78
2021/07/30 07:54:37;;;;;;;;;;;33.40;75.40;;;;;;1902573;75;20191;-77
2021/07/30 07:57:07;;;;;;;;;;;33.50;75.50;;;;;;1900956;75;20164;-78
2021/07/30 07:59:37;;;;;;;;;;;33.60;75.20;;;;;;1898186;73;20335;-77
2021/07/30 08:02:08;;;;;;;;;;;33.70;75.00;;;;;;1879407;74;20215;-76
2021/07/30 08:04:38;;;;;;;;;;;33.80;74.60;;;;;;1897319;74;20621;-77
2021/07/30 08:07:10;;;;;;;;;;;33.90;74.70;;;;;;1901393;74;20207;-77
2021/07/30 08:09:39;;;;;;;;;;;34.00;72.90;;;;;;1899853;75;20260;-77
2021/07/30 08:12:08;;;;;;;;;;;34.10;72.70;;;;;;1899518;75;20235;-78
2021/07/30 08:14:39;;;;;;;;;;;34.10;71.10;;;;;;1903082;75;20166;-77
2021/07/30 08:17:08;;;;;;;;;;;34.10;71.10;;;;;;1898899;75;20242;-77
2021/07/30 08:19:40;;;;;;;;;;;34.10;70.40;;;;;;1900505;75;20140;-75
2021/07/30 08:22:09;;;;;;;;;;;33.90;68.90;;;;;;1899724;74;20259;-78
2021/07/30 08:24:39;;;;;;;;;;;33.40;72.00;;;;;;1898502;75;20181;-76
2021/07/30 08:27:10;;;;;;;;;;;33.00;72.80;;;;;;1900073;74;20158;-77
2021/07/30 08:29:42;;;;;;;;;;;32.40;74.20;;;;;;1901665;75;20532;-75
2021/07/30 08:32:12;;;;;;;;;;;32.00;74.60;;;;;;1897620;75;20225;-77
2021/07/30 08:34:41;;;;;;;;;;;31.60;74.10;;;;;;1898686;75;20244;-77
2021/07/30 08:37:11;;;;;;;;;;;31.30;75.40;;;;;;1899265;75;20195;-76
2021/07/30 08:39:41;;;;;;;;;;;31.10;77.60;;;;;;1900579;75;20177;-76
2021/07/30 08:42:10;;;;;;;;;;;30.80;79.20;;;;;;1897665;75;20196;-76
2021/07/30 08:44:40;;;;;;;;;;;30.60;82.30;;;;;;1905833;74;20209;-75
2021/07/30 08:47:11;;;;;;;;;;;30.40;82.50;;;;;;1905970;74;20116;-75
2021/07/30 08:49:41;;;;;;;;;;;30.20;83.40;;;;;;1912172;74;20128;-74
2021/07/30 08:52:12;;;;;;;;;;;30.10;85.80;;;;;;1906651;74;20216;-77
2021/07/30 08:54:41;;;;;;;;;;;30.10;84.10;;;;;;1914499;74;20247;-75
2021/07/30 08:57:12;;;;;;;;;;;30.10;85.80;;;;;;1903748;74;20165;-76
2021/07/30 08:59:42;;;;;;;;;;;29.90;87.80;;;;;;1916710;73;20433;-76
2021/07/30 09:02:11;;;;;;;;;;;29.80;88.30;;;;;;1906879;74;20493;-76
2021/07/30 09:04:41;;;;;;;;;;;29.80;87.90;;;;;;1914605;74;20238;-75
2021/07/30 09:07:11;;;;;;;;;;;29.70;87.30;;;;;;1905267;74;20273;-76
2021/07/30 09:09:43;;;;;;;;;;;29.60;87.00;;;;;;1910409;74;20278;-75
2021/07/30 09:12:14;;;;;;;;;;;29.60;87.30;;;;;;1909086;74;20438;-74
2021/07/30 09:14:44;;;;;;;;;;;29.60;87.10;;;;;;1901913;74;20126;-77
2021/07/30 09:17:14;;;;;;;;;;;29.60;86.90;;;;;;1909465;74;20130;-78
2021/07/30 09:19:45;;;;;;;;;;;29.60;86.30;;;;;;1896493;74;20260;-77
2021/07/30 09:22:15;;;;;;;;;;;29.70;86.60;;;;;;1907727;74;20251;-77
2021/07/30 09:24:45;;;;;;;;;;;29.80;86.80;;;;;;1908273;74;20500;-76
2021/07/30 09:27:15;;;;;;;;;;;29.80;86.40;;;;;;1909354;74;20228;-77
2021/07/30 09:29:45;;;;;;;;;;;29.70;86.20;;;;;;1912688;74;20206;-77
2021/07/30 09:32:16;;;;;;;;;;;29.80;86.00;;;;;;1913547;74;20200;-77
2021/07/30 09:34:48;;;;;;;;;;;29.80;85.80;;;;;;1911619;74;20175;-78
2021/07/30 09:37:19;;;;;;;;;;;29.80;86.20;;;;;;1919930;74;20466;-75
2021/07/30 09:39:50;;;;;;;;;;;29.90;85.60;;;;;;1909960;74;20130;-78
2021/07/30 09:42:24;;;;;;;;;;;30.00;85.80;;;;;;1897894;74;20259;-76
2021/07/30 09:44:56;;;;;;;;;;;30.10;85.90;;;;;;1908715;74;20200;-77
2021/07/30 09:47:27;;;;;;;;;;;30.10;85.80;;;;;;1907992;74;20215;-75
2021/07/30 09:50:05;;;;;;;;;;;30.10;86.90;;;;;;1901508;74;20126;-77
2021/07/30 09:52:33;;;;;;;;;;;30.20;86.90;;;;;;1919024;74;20210;-77
2021/07/30 09:55:05;;;;;;;;;;;30.20;86.90;;;;;;1908107;74;20229;-76
2021/07/30 09:57:35;;;;;;;;;;;30.10;87.50;;;;;;1918351;74;20581;-77
2021/07/30 10:00:06;;;;;;;;;;;30.00;88.00;;;;;;1900251;74;20437;-77
2021/07/30 10:02:37;;;;;;;;;;;30.00;87.80;;;;;;1906973;74;20405;-77
2021/07/30 10:05:12;;;;;;;;;;;30.00;87.80;;;;;;1905846;73;20206;-77
2021/07/30 10:07:41;;;;;;;;;;;30.00;86.90;;;;;;1918157;74;20161;-79
2021/07/30 10:12:50;;;;;;;;;;;30.00;86.10;;;;;;1878969;76;20521;-78
2021/07/30 10:15:18;;;;;;;;;;;30.00;86.40;;;;;;1829086;78;20213;-78
2021/07/30 10:17:49;;;;;;;;;;;30.00;86.20;;;;;;1828903;78;20221;-78
2021/07/30 10:20:20;;;;;;;;;;;30.00;86.30;;;;;;1840706;78;20186;-77
2021/07/30 10:22:51;;;;;;;;;;;30.00;86.40;;;;;;1830422;78;20237;-76
2021/07/30 10:25:22;;;;;;;;;;;30.00;87.20;;;;;;1819688;78;20217;-76
2021/07/30 10:27:53;;;;;;;;;;;29.90;88.20;;;;;;1819239;78;20184;-77
2021/07/30 10:30:23;;;;;;;;;;;29.90;88.20;;;;;;1825564;78;20180;-77
2021/07/30 10:32:54;;;;;;;;;;;29.80;88.30;;;;;;1880087;76;20189;-77
2021/07/30 10:35:24;;;;;;;;;;;29.80;88.80;;;;;;1883998;75;20275;-77
2021/07/30 10:37:55;;;;;;;;;;;29.80;89.30;;;;;;1876155;76;20194;-78
2021/07/30 10:40:27;;;;;;;;;;;29.80;88.70;;;;;;1874590;75;20138;-76
2021/07/30 10:42:57;;;;;;;;;;;29.80;88.20;;;;;;1878506;76;20122;-77
2021/07/30 10:45:27;;;;;;;;;;;29.80;88.10;;;;;;1878992;75;20216;-79
2021/07/30 10:47:58;;;;;;;;;;;29.90;88.10;;;;;;1876690;76;20236;-78
2021/07/30 10:50:29;;;;;;;;;;;29.90;89.10;;;;;;1885758;76;20206;-78
2021/07/30 10:53:00;;;;;;;;;;;29.90;90.00;;;;;;1868752;76;20227;-78
2021/07/30 10:55:33;;;;;;;;;;;29.80;90.20;;;;;;1870787;76;20153;-78
2021/07/30 10:58:02;;;;;;;;;;;29.80;90.40;;;;;;1877825;75;20169;-77
2021/07/30 11:00:33;;;;;;;;;;;29.90;90.70;;;;;;1884755;75;20161;-76
2021/07/30 11:03:05;;;;;;;;;;;29.80;91.00;;;;;;1844898;77;20184;-77
2021/07/30 11:05:36;;;;;;;;;;;29.80;90.90;;;;;;1821737;78;20237;-77
2021/07/30 11:08:06;;;;;;;;;;;29.80;91.20;;;;;;1839972;76;20219;-78
2021/07/30 11:10:36;;;;;;;;;;;29.80;90.80;;;;;;1835970;78;20245;-77
2021/07/30 11:13:07;;;;;;;;;;;29.80;90.90;;;;;;1851581;77;20171;-78
2021/07/30 11:15:37;;;;;;;;;;;29.80;91.40;;;;;;1833870;77;20245;-78
2021/07/30 11:18:06;;;;;;;;;;;29.80;91.40;;;;;;1835308;77;20235;-79
2021/07/30 11:20:37;;;;;;;;;;;29.80;91.40;;;;;;1837822;77;20252;-78
2021/07/30 11:23:06;;;;;;;;;;;29.80;91.80;;;;;;1838313;77;20215;-77
2021/07/30 11:25:38;;;;;;;;;;;29.80;91.80;;;;;;1850710;77;20229;-77
2021/07/30 11:28:08;;;;;;;;;;;29.70;91.50;;;;;;1853244;77;20155;-78
2021/07/30 11:30:39;;;;;;;;;;;29.60;92.00;;;;;;1838782;76;20185;-77
2021/07/30 11:33:08;;;;;;;;;;;29.60;92.30;;;;;;1833428;77;20177;-77
2021/07/30 11:35:39;;;;;;;;;;;29.50;92.10;;;;;;1835555;78;20221;-77
2021/07/30 11:38:09;;;;;;;;;;;29.60;92.40;;;;;;1838225;77;20214;-77
2021/07/30 11:40:39;;;;;;;;;;;29.60;92.40;;;;;;1843763;77;20162;-77
2021/07/30 11:43:09;;;;;;;;;;;29.50;92.30;;;;;;1883900;74;20154;-78
2021/07/30 11:45:39;;;;;;;;;;;29.50;92.30;;;;;;1885769;74;20414;-76
2021/07/30 11:48:11;;;;;;;;;;;29.40;92.30;;;;;;1821346;78;20190;-79
2021/07/30 11:50:41;;;;;;;;;;;29.40;92.20;;;;;;1809500;78;20311;-76
2021/07/30 11:53:10;;;;;;;;;;;29.30;92.50;;;;;;1869726;74;20241;-76
2021/07/30 11:55:42;;;;;;;;;;;29.30;92.60;;;;;;1872517;74;20265;-76
2021/07/30 11:58:12;;;;;;;;;;;29.20;92.70;;;;;;1874288;76;20507;-76
2021/07/30 12:00:41;;;;;;;;;;;29.10;92.50;;;;;;1867906;74;21034;-77
2021/07/30 12:03:12;;;;;;;;;;;29.10;92.60;;;;;;1877126;74;21027;-77
2021/07/30 12:05:42;;;;;;;;;;;29.00;92.50;;;;;;1878757;74;20209;-77
2021/07/30 12:08:13;;;;;;;;;;;28.90;92.80;;;;;;1875150;76;20205;-77
2021/07/30 12:10:43;;;;;;;;;;;28.90;92.30;;;;;;1880719;74;20186;-79
2021/07/30 12:13:13;;;;;;;;;;;28.90;92.40;;;;;;1878490;74;20218;-76
2021/07/30 12:15:43;;;;;;;;;;;28.80;92.40;;;;;;1877192;74;20204;-77
2021/07/30 12:18:13;;;;;;;;;;;28.80;92.20;;;;;;1813748;76;20330;-75
2021/07/30 12:20:45;;;;;;;;;;;28.80;92.30;;;;;;1837150;78;20522;-78
2021/07/30 12:23:17;;;;;;;;;;;28.80;92.40;;;;;;1817914;79;20451;-78
2021/07/30 12:25:48;;;;;;;;;;;28.80;92.30;;;;;;1812997;79;20298;-78
2021/07/30 12:28:18;;;;;;;;;;;28.80;92.30;;;;;;1815385;79;20164;-77
2021/07/30 12:30:53;;;;;;;;;;;28.80;92.50;;;;;;1873913;76;20216;-87
2021/07/30 12:33:26;;;;;;;;;;;28.80;92.20;;;;;;1865367;76;20231;-87
2021/07/30 12:35:57;;;;;;;;;;;28.80;92.90;;;;;;1867199;76;20230;-88
2021/07/30 12:38:29;;;;;;;;;;;28.80;93.00;;;;;;1870635;74;20720;-88
2021/07/30 12:41:09;;;;;;;;;;;28.70;92.50;;;;;;1879828;76;20264;-87
2021/07/30 12:43:33;;;;;;;;;;;28.80;92.70;;;;;;1798801;79;20232;-88
2021/07/30 12:46:04;;;;;;;;;;;28.70;92.60;;;;;;1803887;77;20479;-88
2021/07/30 12:48:42;;;;;;;;;;;28.70;92.90;;;;;;1833365;77;20427;-88
2021/07/30 12:51:49;;;;;;;;;;;;;;;;;;;;;
2021/07/30 12:54:28;;;;;;;;;;;28.70;92.50;;;;;;1835443;78;20200;-89
2021/07/30 12:57:07;;;;;;;;;;;28.70;92.80;;;;;;1822558;76;20173;-87
2021/07/30 12:59:43;;;;;;;;;;;28.70;93.30;;;;;;1848751;77;20287;-87
2021/07/30 13:02:17;;;;;;;;;;;28.70;93.00;;;;;;1816954;78;20162;-88
2021/07/30 13:04:55;;;;;;;;;;;28.70;93.20;;;;;;1828468;78;20169;-88
2021/07/30 13:07:30;;;;;;;;;;;28.60;93.00;;;;;;1835222;78;20197;-88
2021/07/30 13:10:08;;;;;;;;;;;28.60;93.30;;;;;;1852128;75;20183;-88
2021/07/30 13:12:34;;;;;;;;;;;28.60;93.30;;;;;;1890378;75;20496;-89
2021/07/30 13:15:04;;;;;;;;;;;28.60;93.10;;;;;;1882455;74;20159;-88
2021/07/30 13:18:02;;;;;;;;;;;28.60;93.10;;;;;;1880106;75;20207;-87
2021/07/30 13:20:14;;;;;;;;;;;28.60;93.60;;;;;;1871538;75;20112;-86
2021/07/30 13:22:47;;;;;;;;;;;28.60;93.40;;;;;;1885555;75;20197;-87
2021/07/30 13:25:29;;;;;;;;;;;28.60;93.30;;;;;;1889383;75;20130;-85
2021/07/30 13:29:15;;;;;;;;;;;28.60;93.40;;;;;;1885870;75;20118;-88
2021/07/30 13:31:38;;;;;;;;;;;28.60;93.40;;;;;;1854706;75;20514;-88
2021/07/30 13:33:54;;;;;;;;;;;28.60;93.70;;;;;;1880141;75;20143;-87
2021/07/30 13:36:34;;;;;;;;;;;28.70;93.40;;;;;;1883616;75;20208;-89
2021/07/30 13:39:22;;;;;;;;;;;28.70;93.60;;;;;;1887398;75;20235;-89
2021/07/30 13:41:51;;;;;;;;;;;28.70;93.60;;;;;;1879347;75;20216;-87
2021/07/30 13:44:22;;;;;;;;;;;28.70;93.60;;;;;;1898212;75;20429;-88
2021/07/30 13:47:06;;;;;;;;;;;28.70;93.30;;;;;;1867055;76;20487;-88
2021/07/30 13:49:28;;;;;;;;;;;28.70;93.30;;;;;;1872131;76;20165;-88
2021/07/30 13:52:04;;;;;;;;;;;28.80;93.30;;;;;;1870922;76;20237;-88
2021/07/30 13:54:35;;;;;;;;;;;28.80;93.60;;;;;;1868479;76;20212;-89
2021/07/30 13:57:10;;;;;;;;;;;28.80;93.50;;;;;;1852736;76;20184;-87
2021/07/30 13:59:42;;;;;;;;;;;28.80;93.80;;;;;;1853325;75;20412;-88
2021/07/30 14:02:14;;;;;;;;;;;28.90;94.30;;;;;;1851115;76;20212;-87
2021/07/30 14:04:49;;;;;;;;;;;28.80;94.30;;;;;;1869200;76;20363;-87
2021/07/30 14:07:17;;;;;;;;;;;28.80;94.50;;;;;;1867264;76;20146;-88
2021/07/30 14:09:47;;;;;;;;;;;28.70;94.50;;;;;;1864823;76;20463;-89
2021/07/30 14:12:20;;;;;;;;;;;28.70;94.40;;;;;;1870745;76;20209;-87
2021/07/30 14:14:49;;;;;;;;;;;28.70;94.50;;;;;;1872254;75;20436;-89
2021/07/30 14:17:23;;;;;;;;;;;28.60;94.70;;;;;;1865966;76;20205;-87
2021/07/30 14:19:56;;;;;;;;;;;28.60;94.90;;;;;;1870762;76;20559;-87
2021/07/30 14:22:30;;;;;;;;;;;28.60;95.20;;;;;;1871886;76;20840;-87
2021/07/30 14:25:07;;;;;;;;;;;28.60;95.40;;;;;;1861966;76;20177;-89
2021/07/30 14:27:36;;;;;;;;;;;28.50;95.50;;;;;;1851866;76;20153;-86
2021/07/30 14:30:07;;;;;;;;;;;28.50;95.70;;;;;;1874305;76;20229;-88
2021/07/30 14:32:38;;;;;;;;;;;28.50;96.00;;;;;;1856819;76;20206;-88
2021/07/30 14:35:13;;;;;;;;;;;28.40;96.10;;;;;;1867204;76;20120;-88
2021/07/30 14:37:40;;;;;;;;;;;28.40;96.30;;;;;;1868406;75;20153;-87
2021/07/30 14:40:13;;;;;;;;;;;28.40;96.50;;;;;;1865422;76;20183;-89
2021/07/30 14:42:43;;;;;;;;;;;28.30;96.60;;;;;;1882183;75;20237;-87